createdAt,value
2023-01-05T00:00:39.284Z,6.50
2023-01-05T00:03:13.281Z,6.50
2023-01-05T00:05:48.215Z,6.40
2023-01-05T00:08:21.694Z,6.30
2023-01-05T00:11:12.283Z,6.30
2023-01-05T00:14:03.557Z,6.30
2023-01-05T00:16:54.305Z,6.20
2023-01-05T00:19:45.747Z,6.20
2023-01-05T00:22:32.110Z,6.10
2023-01-05T00:25:12.247Z,6.10
2023-01-05T00:27:50.890Z,6.00
2023-01-05T00:30:28.017Z,6.10
2023-01-05T00:33:01.652Z,6.00
2023-01-05T00:35:37.682Z,6.00
2023-01-05T00:38:12.956Z,6.00
2023-01-05T00:40:46.658Z,6.00
2023-01-05T00:43:20.188Z,6.00
2023-01-05T00:45:53.758Z,6.00
2023-01-05T00:48:27.670Z,6.00
2023-01-05T00:51:01.187Z,6.00
2023-01-05T00:53:36.733Z,5.90
2023-01-05T00:56:10.583Z,5.90
2023-01-05T00:58:44.256Z,5.90
2023-01-05T01:01:18.126Z,5.80
2023-01-05T01:03:51.872Z,5.90
2023-01-05T01:06:25.962Z,5.80
2023-01-05T01:09:01.320Z,5.80
2023-01-05T01:11:35.285Z,5.80
2023-01-05T01:14:09.577Z,5.70
2023-01-05T01:16:43.926Z,5.70
2023-01-05T01:19:19.332Z,5.70
2023-01-05T01:21:54.004Z,5.70
2023-01-05T01:24:29.812Z,5.70
2023-01-05T01:27:03.715Z,5.70
2023-01-05T01:29:37.424Z,5.70
2023-01-05T01:32:10.967Z,5.80
2023-01-05T01:34:44.487Z,5.90
2023-01-05T01:37:18.635Z,5.90
2023-01-05T01:39:57.951Z,6.00
2023-01-05T01:42:31.948Z,6.00
2023-01-05T01:45:18.697Z,6.10
2023-01-05T01:47:57.586Z,6.10
2023-01-05T01:50:34.649Z,6.20
2023-01-05T01:53:13.005Z,6.10
2023-01-05T01:55:48.696Z,6.20
2023-01-05T01:58:27.318Z,6.20
2023-01-05T02:01:01.923Z,6.20
2023-01-05T02:03:36.172Z,6.30
2023-01-05T02:06:10.681Z,6.30
2023-01-05T02:08:44.755Z,6.30
2023-01-05T02:11:42.139Z,6.30
2023-01-05T02:14:33.780Z,6.30
2023-01-05T02:17:17.099Z,6.30
2023-01-05T02:20:33.578Z,6.40
2023-01-05T02:23:37.047Z,6.40
2023-01-05T02:26:51.145Z,6.40
2023-01-05T02:29:47.716Z,6.40
2023-01-05T02:32:24.530Z,6.50
2023-01-05T02:35:10.864Z,6.50
2023-01-05T02:37:49.500Z,6.50
2023-01-05T02:40:28.837Z,6.50
2023-01-05T02:43:05.169Z,6.50
2023-01-05T02:45:38.725Z,6.50
2023-01-05T02:48:14.041Z,6.40
2023-01-05T02:50:53.881Z,6.40
2023-01-05T02:53:31.811Z,6.30
2023-01-05T02:56:11.867Z,6.30
2023-01-05T02:58:51.806Z,6.20
2023-01-05T03:01:30.093Z,6.20
2023-01-05T03:04:09.561Z,6.20
2023-01-05T03:06:50.835Z,6.10
2023-01-05T03:09:29.715Z,6.10
2023-01-05T03:12:33.038Z,6.20
2023-01-05T03:15:11.469Z,6.20
2023-01-05T03:17:49.466Z,6.20
2023-01-05T03:20:29.250Z,6.30
2023-01-05T03:23:24.656Z,6.20
2023-01-05T03:26:15.788Z,6.20
2023-01-05T03:29:10.383Z,6.20
2023-01-05T03:32:07.342Z,6.30
2023-01-05T03:35:08.742Z,6.30
2023-01-05T03:37:55.433Z,6.40
2023-01-05T03:40:32.405Z,6.50
2023-01-05T03:43:07.446Z,6.50
2023-01-05T03:45:44.361Z,6.50
2023-01-05T03:48:24.769Z,6.60
2023-01-05T03:50:58.785Z,6.60
2023-01-05T03:53:34.940Z,6.70
2023-01-05T03:56:09.118Z,6.70
2023-01-05T03:58:42.762Z,6.70
2023-01-05T04:01:16.542Z,6.70
2023-01-05T04:03:50.449Z,6.70
2023-01-05T04:06:24.924Z,6.60
2023-01-05T04:09:00.633Z,6.60
2023-01-05T04:11:34.419Z,6.60
2023-01-05T04:14:11.679Z,6.60
2023-01-05T04:16:45.574Z,6.50
2023-01-05T04:19:24.804Z,6.50
2023-01-05T04:22:00.616Z,6.50
2023-01-05T04:24:38.012Z,6.50
2023-01-05T04:27:11.631Z,6.40
2023-01-05T04:29:46.336Z,6.40
2023-01-05T04:32:20.218Z,6.40
2023-01-05T04:34:54.416Z,6.40
2023-01-05T04:37:28.407Z,6.40
2023-01-05T04:40:03.759Z,6.40
2023-01-05T04:42:41.829Z,6.50
2023-01-05T04:45:16.287Z,6.50
2023-01-05T04:47:50.640Z,6.40
2023-01-05T04:50:28.217Z,6.40
2023-01-05T04:53:02.742Z,6.40
2023-01-05T04:55:38.410Z,6.40
2023-01-05T04:58:12.687Z,6.40
2023-01-05T05:00:47.679Z,6.30
2023-01-05T05:03:21.936Z,6.30
2023-01-05T05:05:55.670Z,6.30
2023-01-05T05:08:30.278Z,6.30
2023-01-05T05:11:07.877Z,6.20
2023-01-05T05:13:43.647Z,6.20
2023-01-05T05:16:17.923Z,6.10
2023-01-05T05:18:53.478Z,6.10
2023-01-05T05:21:30.906Z,6.00
2023-01-05T05:24:04.726Z,6.00
2023-01-05T05:26:44.353Z,6.00
2023-01-05T05:29:18.013Z,5.90
2023-01-05T05:31:51.880Z,5.90
2023-01-05T05:34:25.406Z,5.90
2023-01-05T05:36:59.199Z,5.90
2023-01-05T05:39:32.723Z,5.90
2023-01-05T05:42:07.873Z,5.90
2023-01-05T05:44:41.980Z,5.90
2023-01-05T05:47:15.970Z,6.00
2023-01-05T05:49:49.485Z,5.90
2023-01-05T05:52:22.986Z,6.20
2023-01-05T05:54:56.475Z,6.20
2023-01-05T05:57:31.703Z,6.30
2023-01-05T06:00:06.700Z,6.30
2023-01-05T06:02:46.258Z,6.30
2023-01-05T06:05:19.904Z,6.30
2023-01-05T06:07:53.418Z,6.30
2023-01-05T06:10:26.951Z,6.30
2023-01-05T06:13:02.063Z,6.30
2023-01-05T06:15:35.616Z,6.30
2023-01-05T06:18:09.172Z,6.30
2023-01-05T06:20:43.011Z,6.30
2023-01-05T06:23:16.728Z,6.30
2023-01-05T06:25:50.249Z,6.30
2023-01-05T06:28:25.231Z,6.30
2023-01-05T06:30:58.784Z,6.30
2023-01-05T06:33:32.343Z,6.30
2023-01-05T06:36:06.840Z,6.50
2023-01-05T06:38:40.470Z,6.50
2023-01-05T06:41:13.990Z,6.60
2023-01-05T06:43:48.927Z,6.60
2023-01-05T06:46:22.750Z,6.60
2023-01-05T06:48:57.115Z,6.70
2023-01-05T06:51:30.580Z,6.60
2023-01-05T06:54:04.583Z,6.60
2023-01-05T06:56:38.197Z,6.60
2023-01-05T06:59:14.410Z,6.60
2023-01-05T07:01:47.979Z,6.60
2023-01-05T07:04:21.749Z,6.60
2023-01-05T07:06:55.346Z,6.60
2023-01-05T07:09:28.818Z,6.60
2023-01-05T07:12:02.520Z,6.60
2023-01-05T07:14:38.214Z,6.60
2023-01-05T07:17:13.465Z,6.70
2023-01-05T07:19:46.988Z,6.70
2023-01-05T07:22:20.963Z,6.60
2023-01-05T07:24:54.432Z,6.70
2023-01-05T07:27:28.593Z,6.70
2023-01-05T07:30:03.503Z,6.90
2023-01-05T07:32:37.450Z,7.00
2023-01-05T07:35:11.438Z,7.10
2023-01-05T07:37:45.099Z,7.20
2023-01-05T07:40:19.434Z,7.30
2023-01-05T07:42:53.771Z,7.30
2023-01-05T07:45:28.652Z,7.30
2023-01-05T07:48:02.890Z,7.40
2023-01-05T07:50:36.710Z,7.40
2023-01-05T07:53:10.261Z,7.50
2023-01-05T07:55:43.968Z,7.60
2023-01-05T07:58:17.502Z,7.60
2023-01-05T08:00:52.423Z,7.70
2023-01-05T08:03:25.949Z,7.80
2023-01-05T08:05:59.487Z,7.90
2023-01-05T08:08:33.042Z,8.00
2023-01-05T08:11:07.816Z,8.10
2023-01-05T08:13:58.640Z,8.30
2023-01-05T08:16:34.736Z,8.30
2023-01-05T08:19:11.402Z,8.50
2023-01-05T08:21:45.301Z,8.50
2023-01-05T08:24:19.016Z,8.60
2023-01-05T08:26:52.721Z,8.70
2023-01-05T08:29:26.241Z,8.80
2023-01-05T08:32:01.183Z,8.90
2023-01-05T08:34:35.161Z,8.90
2023-01-05T08:37:08.716Z,9.00
2023-01-05T08:39:42.206Z,9.10
2023-01-05T08:42:15.882Z,9.10
2023-01-05T08:44:49.551Z,9.20
2023-01-05T08:47:28.147Z,9.20
2023-01-05T08:50:02.148Z,9.30
2023-01-05T08:52:35.644Z,9.30
2023-01-05T08:55:09.586Z,9.40
2023-01-05T08:57:43.148Z,9.40
2023-01-05T09:00:21.928Z,9.50
2023-01-05T09:02:57.055Z,9.50
2023-01-05T09:05:30.724Z,9.50
2023-01-05T09:08:05.064Z,9.50
2023-01-05T09:10:38.601Z,9.60
2023-01-05T09:13:12.134Z,9.50
2023-01-05T09:15:45.666Z,9.50
2023-01-05T09:18:20.670Z,9.50
2023-01-05T09:20:56.674Z,9.40
2023-01-05T09:23:30.408Z,9.30
2023-01-05T09:26:06.052Z,9.20
2023-01-05T09:28:40.251Z,9.10
2023-01-05T09:31:15.884Z,8.90
2023-01-05T09:33:51.279Z,8.80
2023-01-05T09:36:25.661Z,8.60
2023-01-05T09:38:59.873Z,8.50
2023-01-05T09:41:38.150Z,8.40
2023-01-05T09:44:22.217Z,8.20
2023-01-05T09:47:00.737Z,8.10
2023-01-05T09:49:36.738Z,8.10
2023-01-05T09:52:12.444Z,8.00
2023-01-05T09:54:46.099Z,7.90
2023-01-05T09:57:23.382Z,7.80
2023-01-05T10:00:00.425Z,7.70
2023-01-05T10:02:41.121Z,7.60
2023-01-05T10:05:17.249Z,7.60
2023-01-05T10:07:54.960Z,7.40
2023-01-05T10:10:43.483Z,7.40
2023-01-05T10:13:25.091Z,7.30
2023-01-05T10:15:58.772Z,7.30
2023-01-05T10:18:34.700Z,7.30
2023-01-05T10:21:16.865Z,7.30
2023-01-05T10:24:01.494Z,7.30
2023-01-05T10:27:14.523Z,7.20
2023-01-05T10:29:44.442Z,7.30
2023-01-05T10:32:26.217Z,7.30
2023-01-05T10:35:02.722Z,7.30
2023-01-05T10:37:58.095Z,7.30
2023-01-05T10:40:41.304Z,7.30
2023-01-05T10:43:44.016Z,7.40
2023-01-05T10:46:33.605Z,7.40
2023-01-05T10:49:19.795Z,7.40
2023-01-05T10:51:56.763Z,7.40
2023-01-05T10:54:37.899Z,7.40
2023-01-05T10:57:40.426Z,7.40
2023-01-05T11:00:16.648Z,7.40
2023-01-05T11:02:52.323Z,7.40
2023-01-05T11:05:31.177Z,7.40
2023-01-05T11:08:07.231Z,7.40
2023-01-05T11:10:50.161Z,7.40
2023-01-05T11:13:31.933Z,7.40
2023-01-05T11:16:12.476Z,7.40
2023-01-05T11:18:50.793Z,7.40
2023-01-05T11:21:25.563Z,7.50
2023-01-05T11:24:00.423Z,7.50
2023-01-05T11:26:37.319Z,7.60
2023-01-05T11:29:17.288Z,7.60
2023-01-05T11:31:55.003Z,7.70
2023-01-05T11:34:34.154Z,7.70
2023-01-05T11:37:24.315Z,7.80
2023-01-05T11:39:59.881Z,7.90
2023-01-05T11:42:41.808Z,8.00
2023-01-05T11:45:22.289Z,8.00
2023-01-05T11:47:57.701Z,8.10
2023-01-05T11:50:41.726Z,8.20
2023-01-05T11:53:26.388Z,8.20
2023-01-05T11:56:04.355Z,8.20
2023-01-05T11:58:44.852Z,8.20
2023-01-05T12:01:52.555Z,8.20
2023-01-05T12:04:58.753Z,8.20
2023-01-05T12:07:35.877Z,8.20
2023-01-05T12:10:37.880Z,8.10
2023-01-05T12:13:26.021Z,8.10
2023-01-05T12:16:20.295Z,8.10
2023-01-05T12:19:41.005Z,8.20
2023-01-05T12:22:53.998Z,8.10
2023-01-05T12:25:38.424Z,8.10
2023-01-05T12:28:41.086Z,8.10
2023-01-05T12:34:39.741Z,8.20
2023-01-05T12:37:29.988Z,8.20
2023-01-05T12:40:19.268Z,8.30
2023-01-05T12:42:59.983Z,8.40
2023-01-05T12:45:51.944Z,8.50
2023-01-05T12:48:31.312Z,8.50
2023-01-05T12:51:11.360Z,8.60
2023-01-05T12:53:53.078Z,8.80
2023-01-05T12:56:31.387Z,8.90
2023-01-05T12:59:15.862Z,9.00
2023-01-05T13:01:57.863Z,9.10
2023-01-05T13:04:48.407Z,9.10
2023-01-05T13:07:30.379Z,9.00
2023-01-05T13:10:08.315Z,9.00
2023-01-05T13:12:43.181Z,9.00
2023-01-05T13:15:21.909Z,9.00
2023-01-05T13:17:57.882Z,8.90
2023-01-05T13:20:40.835Z,8.90
2023-01-05T13:23:18.557Z,8.90
2023-01-05T13:25:57.242Z,8.90
2023-01-05T13:28:32.018Z,8.80
2023-01-05T13:31:40.565Z,8.80
2023-01-05T13:35:00.150Z,8.80
2023-01-05T13:37:52.958Z,8.80
2023-01-05T13:41:04.871Z,8.80
2023-01-05T13:44:06.716Z,8.70
2023-01-05T13:46:57.447Z,8.60
2023-01-05T13:50:18.082Z,8.60
2023-01-05T13:53:10.592Z,8.60
2023-01-05T13:55:52.384Z,8.40
2023-01-05T13:58:43.063Z,8.40
2023-01-05T14:01:18.933Z,8.40
2023-01-05T14:03:55.116Z,8.40
2023-01-05T14:06:30.740Z,8.30
2023-01-05T14:09:08.636Z,8.30
2023-01-05T14:12:20.436Z,8.30
2023-01-05T14:15:28.955Z,8.30
2023-01-05T14:18:03.016Z,8.20
2023-01-05T14:20:40.820Z,8.20
2023-01-05T14:23:57.166Z,8.20
2023-01-05T14:27:03.935Z,8.20
2023-01-05T14:30:09.688Z,8.20
2023-01-05T14:32:45.007Z,8.20
2023-01-05T14:35:29.443Z,8.20
2023-01-05T14:38:05.455Z,8.10
2023-01-05T14:40:42.419Z,8.10
2023-01-05T14:43:31.725Z,8.10
2023-01-05T14:46:09.574Z,8.10
2023-01-05T14:48:54.635Z,8.00
2023-01-05T14:51:29.934Z,8.00
2023-01-05T14:54:05.091Z,8.00
2023-01-05T14:56:39.426Z,7.90
2023-01-05T14:59:23.533Z,7.90
2023-01-05T15:02:01.663Z,7.90
2023-01-05T15:04:39.792Z,7.90
2023-01-05T15:07:27.012Z,7.90
2023-01-05T15:10:43.589Z,7.90
2023-01-05T15:14:06.368Z,7.80
2023-01-05T15:17:02.276Z,7.80
2023-01-05T15:20:01.497Z,7.70
2023-01-05T15:22:55.946Z,7.60
2023-01-05T15:26:03.178Z,7.60
2023-01-05T15:29:20.265Z,7.50
2023-01-05T15:31:57.532Z,7.50
2023-01-05T15:34:41.021Z,7.50
2023-01-05T15:37:22.552Z,7.40
2023-01-05T15:39:57.630Z,7.40
2023-01-05T15:42:40.722Z,7.30
2023-01-05T15:45:23.461Z,7.30
2023-01-05T15:47:57.948Z,7.20
2023-01-05T15:50:38.598Z,7.20
2023-01-05T15:53:26.140Z,7.10
2023-01-05T15:56:00.301Z,7.20
2023-01-05T15:58:44.670Z,7.20
2023-01-05T16:01:18.525Z,7.20
2023-01-05T16:03:52.389Z,7.20
2023-01-05T16:06:29.034Z,7.20
2023-01-05T16:09:10.341Z,7.20
2023-01-05T16:11:46.363Z,7.20
2023-01-05T16:14:28.704Z,7.10
2023-01-05T16:17:07.749Z,7.10
2023-01-05T16:19:44.858Z,7.10
2023-01-05T16:22:22.614Z,7.10
2023-01-05T16:25:01.136Z,7.10
2023-01-05T16:27:39.314Z,7.10
2023-01-05T16:30:28.142Z,7.10
2023-01-05T16:33:04.623Z,7.10
2023-01-05T16:35:44.132Z,7.10
2023-01-05T16:38:24.982Z,7.00
2023-01-05T16:41:07.515Z,7.00
2023-01-05T16:43:48.037Z,7.00
2023-01-05T16:46:42.566Z,7.00
2023-01-05T16:49:43.430Z,7.00
2023-01-05T16:52:26.014Z,6.90
2023-01-05T16:55:29.290Z,6.90
2023-01-05T16:58:07.187Z,6.90
2023-01-05T17:00:41.416Z,6.90
2023-01-05T17:03:30.700Z,6.80
2023-01-05T17:06:04.907Z,6.80
2023-01-05T17:08:40.044Z,6.80
2023-01-05T17:11:13.590Z,6.80
2023-01-05T17:13:52.334Z,6.80
2023-01-05T17:16:25.889Z,6.90
2023-01-05T17:19:01.904Z,6.90
2023-01-05T17:24:15.045Z,6.90
2023-01-05T17:26:48.653Z,6.90
2023-01-05T17:29:27.191Z,6.90
2023-01-05T17:32:00.829Z,6.90
2023-01-05T17:34:34.334Z,6.90
2023-01-05T17:37:07.869Z,6.90
2023-01-05T17:39:41.375Z,7.00
2023-01-05T17:45:08.383Z,7.00
2023-01-05T17:47:41.971Z,7.00
2023-01-05T17:50:19.451Z,7.10
2023-01-05T17:52:52.982Z,7.20
2023-01-05T17:55:27.258Z,7.20
2023-01-05T17:58:01.857Z,7.30
2023-01-05T18:00:39.858Z,7.30
2023-01-05T18:03:17.219Z,7.30
2023-01-05T18:05:52.967Z,7.30
2023-01-05T18:08:26.507Z,7.30
2023-01-05T18:11:03.029Z,7.40
2023-01-05T18:13:37.115Z,7.40
2023-01-05T18:16:13.561Z,7.40
2023-01-05T18:18:47.067Z,7.50
2023-01-05T18:21:20.603Z,7.50
2023-01-05T18:23:54.084Z,7.50
2023-01-05T18:26:27.621Z,7.50
2023-01-05T18:29:03.333Z,7.50
2023-01-05T18:31:40.220Z,7.50
2023-01-05T18:34:15.498Z,7.40
2023-01-05T18:36:55.614Z,7.40
2023-01-05T18:39:37.026Z,7.40
2023-01-05T18:42:10.850Z,7.40
2023-01-05T18:44:45.721Z,7.40
2023-01-05T18:47:20.704Z,7.40
2023-01-05T18:49:57.221Z,7.30
2023-01-05T18:52:30.746Z,7.30
2023-01-05T18:55:04.603Z,7.40
2023-01-05T18:57:38.108Z,7.30
2023-01-05T19:00:12.843Z,7.20
2023-01-05T19:02:47.788Z,7.10
2023-01-05T19:05:21.325Z,7.10
2023-01-05T19:07:55.227Z,7.00
2023-01-05T19:10:32.392Z,6.90
2023-01-05T19:13:06.335Z,6.80
2023-01-05T19:15:40.037Z,6.80
2023-01-05T19:18:15.208Z,6.70
2023-01-05T19:20:57.203Z,6.70
2023-01-05T19:23:31.063Z,6.70
2023-01-05T19:26:06.572Z,6.70
2023-01-05T19:28:41.295Z,6.70
2023-01-05T19:31:16.366Z,6.70
2023-01-05T19:33:53.310Z,6.60
2023-01-05T19:36:32.453Z,6.60
2023-01-05T19:39:08.831Z,6.60
2023-01-05T19:41:45.701Z,6.60
2023-01-05T19:44:22.226Z,6.60
2023-01-05T19:46:55.867Z,6.60
2023-01-05T19:49:30.920Z,6.60
2023-01-05T19:52:04.671Z,6.60
2023-01-05T19:54:39.380Z,6.60
2023-01-05T19:57:13.081Z,6.60
2023-01-05T19:59:46.629Z,6.60
2023-01-05T20:02:20.321Z,6.60
2023-01-05T20:04:55.410Z,6.60
2023-01-05T20:07:28.993Z,6.50
2023-01-05T20:10:02.599Z,6.50
2023-01-05T20:12:36.404Z,6.60
2023-01-05T20:15:11.871Z,6.50
2023-01-05T20:17:45.875Z,6.50
2023-01-05T20:20:20.973Z,6.50
2023-01-05T20:22:54.558Z,6.50
2023-01-05T20:25:28.144Z,6.50
2023-01-05T20:28:01.696Z,6.60
2023-01-05T20:30:36.982Z,6.60
2023-01-05T20:33:14.011Z,6.60
2023-01-05T20:35:49.010Z,6.60
2023-01-05T20:38:22.856Z,6.60
2023-01-05T20:40:56.443Z,6.60
2023-01-05T20:43:29.997Z,6.70
2023-01-05T20:46:03.621Z,6.70
2023-01-05T20:48:37.195Z,6.70
2023-01-05T20:51:14.531Z,6.80
2023-01-05T20:53:48.308Z,6.80
2023-01-05T20:56:24.083Z,6.80
2023-01-05T20:58:57.721Z,6.80
2023-01-05T21:01:31.399Z,6.80
2023-01-05T21:04:06.316Z,6.80
2023-01-05T21:06:42.247Z,6.80
2023-01-05T21:09:16.164Z,6.90
2023-01-05T21:11:49.774Z,6.90
2023-01-05T21:14:23.398Z,6.80
2023-01-05T21:16:57.175Z,6.90
2023-01-05T21:19:30.810Z,6.90
2023-01-05T21:22:05.807Z,6.90
2023-01-05T21:24:39.334Z,6.90
2023-01-05T21:27:12.959Z,6.90
2023-01-05T21:29:46.506Z,6.90
2023-01-05T21:32:20.173Z,6.90
2023-01-05T21:34:53.739Z,6.90
2023-01-05T21:37:28.709Z,6.90
2023-01-05T21:40:02.432Z,6.90
2023-01-05T21:42:42.691Z,6.90
2023-01-05T21:45:16.261Z,6.90
2023-01-05T21:47:54.123Z,6.90
2023-01-05T21:50:45.629Z,6.90
2023-01-05T21:53:38.389Z,6.80
2023-01-05T21:56:27.840Z,6.80
2023-01-05T21:59:07.282Z,6.70
2023-01-05T22:01:40.896Z,6.70
2023-01-05T22:04:14.458Z,6.60
2023-01-05T22:06:48.603Z,6.60
2023-01-05T22:09:23.663Z,6.60
2023-01-05T22:11:57.217Z,6.60
2023-01-05T22:14:30.849Z,6.60
2023-01-05T22:17:04.800Z,6.60
2023-01-05T22:19:38.373Z,6.60
2023-01-05T22:22:11.955Z,6.50
2023-01-05T22:24:47.004Z,6.40
2023-01-05T22:27:20.513Z,6.30
2023-01-05T22:29:53.986Z,6.30
2023-01-05T22:32:27.495Z,6.20
2023-01-05T22:35:00.998Z,6.10
2023-01-05T22:37:34.676Z,6.00
2023-01-05T22:40:11.403Z,5.90
2023-01-05T22:42:44.921Z,5.90
2023-01-05T22:45:18.566Z,5.80
2023-01-05T22:47:52.095Z,5.80
2023-01-05T22:50:25.706Z,5.70
2023-01-05T22:52:59.231Z,5.60
2023-01-05T22:55:34.183Z,5.60
2023-01-05T22:58:07.689Z,5.60
2023-01-05T23:00:41.323Z,5.60
2023-01-05T23:03:14.827Z,5.60
2023-01-05T23:05:48.666Z,5.50
2023-01-05T23:08:22.185Z,5.50
2023-01-05T23:11:01.549Z,5.50
2023-01-05T23:13:35.360Z,5.40
2023-01-05T23:16:09.686Z,5.40
2023-01-05T23:18:44.781Z,5.40
2023-01-05T23:21:19.697Z,5.40
2023-01-05T23:23:54.046Z,5.30
2023-01-05T23:26:29.691Z,5.30
2023-01-05T23:29:03.455Z,5.30
2023-01-05T23:31:36.981Z,5.20
2023-01-05T23:34:10.526Z,5.10
2023-01-05T23:36:44.064Z,5.10
2023-01-05T23:39:17.638Z,5.10
2023-01-05T23:41:52.586Z,5.10
2023-01-05T23:44:26.142Z,5.00
2023-01-05T23:46:59.658Z,5.00
2023-01-05T23:49:33.173Z,5.00
2023-01-05T23:52:06.814Z,5.00
2023-01-05T23:54:40.363Z,5.00
2023-01-05T23:57:15.243Z,5.00
2023-01-05T23:59:48.861Z,5.00
